Wetterdaten: Woche 25.05.15 - 31.05.15 (KW22)
Datum Zeit Temp. Aussen +5cm Feuchte Auss BlattFeu 1 Luftdruck Regen Sonnenschein Regendauer Solar Windben
25.05.2015 00:00 12,1 C 10,2 C 66 % 0 lf 1016,5 hPa 0,0 l/m 0,00 h 0,00 h 0 W/m 2,2 km/h (1 Bft)
25.05.2015 01:00 10,8 C 9,8 C 70 % 0 lf 1016,2 hPa 0,0 l/m 0,00 h 0,00 h 0 W/m 1,3 km/h (1 Bft)
25.05.2015 02:00 10,4 C 10,5 C 74 % 0 lf 1016,0 hPa 0,0 l/m 0,00 h 0,00 h 0 W/m 2,9 km/h (1 Bft)
25.05.2015 03:00 10,8 C 10,7 C 74 % 1 lf 1015,7 hPa 0,0 l/m 0,00 h 0,27 h 0 W/m 5,3 km/h (1 Bft)
25.05.2015 04:00 11,4 C 10,4 C 77 % 9 lf 1015,5 hPa 0,0 l/m 0,00 h 0,42 h 0 W/m 4,8 km/h (1 Bft)
25.05.2015 05:00 11,4 C 10,6 C 80 % 2 lf 1015,2 hPa 0,0 l/m 0,00 h 0,20 h 7 W/m 2,9 km/h (1 Bft)
25.05.2015 06:00 11,5 C 11,0 C 83 % 0 lf 1015,2 hPa 0,0 l/m 0,00 h 0,00 h 17 W/m 3,8 km/h (1 Bft)
25.05.2015 07:00 11,9 C 11,6 C 85 % 2 lf 1015,1 hPa 0,0 l/m 0,00 h 0,17 h 30 W/m 4,5 km/h (1 Bft)
25.05.2015 08:00 12,5 C 11,4 C 88 % 15 lf 1015,1 hPa 0,0 l/m 0,00 h 0,20 h 36 W/m 6,4 km/h (2 Bft)
25.05.2015 09:00 12,5 C 11,6 C 91 % 15 lf 1015,1 hPa 0,6 l/m 0,00 h 0,77 h 52 W/m 5,5 km/h (1 Bft)
25.05.2015 10:00 12,4 C 11,8 C 94 % 15 lf 1014,9 hPa 1,2 l/m 0,00 h 0,90 h 77 W/m 8,1 km/h (2 Bft)
25.05.2015 11:00 11,3 C 11,2 C 92 % 14 lf 1014,9 hPa 0,0 l/m 0,00 h 0,00 h 173 W/m 15,1 km/h (3 Bft)
25.05.2015 12:00 13,3 C 13,4 C 85 % 0 lf 1014,8 hPa 0,0 l/m 0,40 h 0,00 h 376 W/m 13,5 km/h (3 Bft)
25.05.2015 13:00 14,3 C 13,6 C 75 % 0 lf 1014,8 hPa 0,0 l/m 0,03 h 0,00 h 339 W/m 15,8 km/h (3 Bft)
25.05.2015 14:00 15,2 C 14,7 C 73 % 0 lf 1014,6 hPa 0,0 l/m 0,63 h 0,00 h 531 W/m 13,6 km/h (3 Bft)
25.05.2015 15:00 16,9 C 15,7 C 67 % 0 lf 1014,4 hPa 0,0 l/m 0,67 h 0,00 h 513 W/m 15,4 km/h (3 Bft)
25.05.2015 16:00 17,0 C 15,5 C 64 % 0 lf 1014,3 hPa 0,0 l/m 0,37 h 0,00 h 374 W/m 15,7 km/h (3 Bft)
25.05.2015 17:00 16,9 C 14,9 C 63 % 0 lf 1014,3 hPa 0,0 l/m 0,33 h 0,00 h 220 W/m 17,3 km/h (3 Bft)
25.05.2015 18:00 16,1 C 14,4 C 63 % 0 lf 1014,4 hPa 0,0 l/m 0,30 h 0,00 h 214 W/m 18,2 km/h (3 Bft)
25.05.2015 19:00 15,4 C 13,4 C 64 % 0 lf 1014,6 hPa 0,0 l/m 0,03 h 0,00 h 88 W/m 17,6 km/h (3 Bft)
25.05.2015 20:00 14,6 C 12,5 C 65 % 0 lf 1014,8 hPa 0,0 l/m 0,00 h 0,00 h 32 W/m 15,3 km/h (3 Bft)
25.05.2015 21:00 13,8 C 11,8 C 70 % 0 lf 1015,6 hPa 0,0 l/m 0,00 h 0,00 h 7 W/m 18,4 km/h (3 Bft)
25.05.2015 22:00 12,6 C 10,8 C 73 % 0 lf 1016,1 hPa 0,0 l/m 0,00 h 0,00 h 0 W/m 11,2 km/h (2 Bft)
25.05.2015 23:00 11,9 C 10,6 C 75 % 0 lf 1016,4 hPa 0,0 l/m 0,00 h 0,00 h 0 W/m 16,7 km/h (3 Bft)
26.05.2015 00:00 11,4 C 10,0 C 76 % 0 lf 1016,7 hPa 0,0 l/m 0,00 h 0,00 h 0 W/m 12,8 km/h (3 Bft)
26.05.2015 01:00 10,9 C 10,0 C 77 % 0 lf 1016,8 hPa 0,0 l/m 0,00 h 0,00 h 0 W/m 11,8 km/h (2 Bft)
26.05.2015 02:00 10,5 C 9,7 C 79 % 0 lf 1017,0 hPa 0,0 l/m 0,00 h 0,00 h 0 W/m 12,4 km/h (3 Bft)
26.05.2015 03:00 10,1 C 9,4 C 81 % 0 lf 1017,3 hPa 0,0 l/m 0,00 h 0,03 h 0 W/m 11,1 km/h (2 Bft)
26.05.2015 04:00 9,7 C 9,1 C 83 % 0 lf 1017,6 hPa 0,0 l/m 0,00 h 0,07 h 0 W/m 11,2 km/h (2 Bft)
26.05.2015 05:00 9,4 C 8,9 C 85 % 0 lf 1017,9 hPa 0,0 l/m 0,00 h 0,00 h 7 W/m 9,1 km/h (2 Bft)
26.05.2015 06:00 9,3 C 9,2 C 85 % 0 lf 1018,5 hPa 0,0 l/m 0,00 h 0,00 h 34 W/m 7,0 km/h (2 Bft)
26.05.2015 07:00 9,8 C 9,8 C 87 % 0 lf 1018,8 hPa 0,0 l/m 0,00 h 0,00 h 109 W/m 10,4 km/h (2 Bft)
26.05.2015 08:00 10,6 C 10,7 C 81 % 0 lf 1019,3 hPa 0,0 l/m 0,47 h 0,00 h 216 W/m 13,7 km/h (3 Bft)
26.05.2015 09:00 11,9 C 12,0 C 72 % 0 lf 1019,6 hPa 0,0 l/m 1,00 h 0,00 h 377 W/m 14,2 km/h (3 Bft)
26.05.2015 10:00 13,8 C 13,8 C 66 % 0 lf 1019,8 hPa 0,0 l/m 0,83 h 0,00 h 499 W/m 16,0 km/h (3 Bft)
26.05.2015 11:00 14,0 C 13,4 C 64 % 0 lf 1020,0 hPa 0,0 l/m 0,23 h 0,00 h 288 W/m 15,1 km/h (3 Bft)
26.05.2015 12:00 15,2 C 14,6 C 60 % 0 lf 1019,9 hPa 0,0 l/m 0,33 h 0,00 h 318 W/m 17,4 km/h (3 Bft)
26.05.2015 13:00 13,5 C 12,4 C 65 % 0 lf 1020,4 hPa 0,0 l/m 0,00 h 0,00 h 204 W/m 23,2 km/h (4 Bft)
26.05.2015 14:00 13,9 C 14,0 C 65 % 0 lf 1020,4 hPa 0,0 l/m 0,47 h 0,00 h 412 W/m 16,6 km/h (3 Bft)
26.05.2015 15:00 15,8 C 14,8 C 58 % 0 lf 1020,2 hPa 0,0 l/m 0,37 h 0,00 h 385 W/m 23,3 km/h (4 Bft)
26.05.2015 16:00 15,7 C 14,6 C 57 % 0 lf 1020,5 hPa 0,0 l/m 0,07 h 0,00 h 259 W/m 24,0 km/h (4 Bft)
26.05.2015 17:00 15,9 C 14,6 C 55 % 0 lf 1020,7 hPa 0,0 l/m 0,20 h 0,00 h 286 W/m 21,7 km/h (4 Bft)
26.05.2015 18:00 15,2 C 14,0 C 55 % 0 lf 1021,1 hPa 0,0 l/m 0,07 h 0,00 h 166 W/m 23,9 km/h (4 Bft)
26.05.2015 19:00 14,5 C 13,2 C 57 % 0 lf 1021,8 hPa 0,0 l/m 0,10 h 0,00 h 112 W/m 23,1 km/h (4 Bft)
26.05.2015 20:00 13,6 C 11,9 C 60 % 0 lf 1022,4 hPa 0,0 l/m 0,07 h 0,00 h 47 W/m 19,9 km/h (4 Bft)
26.05.2015 21:00 12,6 C 11,3 C 64 % 0 lf 1022,8 hPa 0,0 l/m 0,20 h 0,00 h 14 W/m 14,4 km/h (3 Bft)
26.05.2015 22:00 12,0 C 10,8 C 69 % 0 lf 1023,3 hPa 0,0 l/m 0,00 h 0,00 h 0 W/m 8,6 km/h (2 Bft)
26.05.2015 23:00 11,5 C 10,4 C 70 % 0 lf 1023,5 hPa 0,0 l/m 0,00 h 0,00 h 0 W/m 9,6 km/h (2 Bft)
27.05.2015 00:00 11,1 C 10,0 C 73 % 0 lf 1023,8 hPa 0,0 l/m 0,00 h 0,00 h 0 W/m 9,4 km/h (2 Bft)
27.05.2015 01:00 10,9 C 10,0 C 74 % 0 lf 1024,0 hPa 0,0 l/m 0,00 h 0,00 h 0 W/m 5,4 km/h (1 Bft)
27.05.2015 02:00 10,6 C 9,7 C 76 % 0 lf 1024,0 hPa 0,0 l/m 0,00 h 0,00 h 0 W/m 4,0 km/h (1 Bft)
27.05.2015 03:00 10,2 C 9,4 C 77 % 0 lf 1024,2 hPa 0,0 l/m 0,00 h 0,00 h 0 W/m 3,6 km/h (1 Bft)
27.05.2015 04:00 9,9 C 9,4 C 79 % 0 lf 1024,2 hPa 0,0 l/m 0,00 h 0,00 h 0 W/m 3,7 km/h (1 Bft)
27.05.2015 05:00 9,7 C 9,4 C 80 % 0 lf 1024,1 hPa 0,0 l/m 0,00 h 0,00 h 8 W/m 2,9 km/h (1 Bft)
27.05.2015 06:00 9,6 C 9,4 C 82 % 0 lf 1024,0 hPa 0,0 l/m 0,00 h 0,00 h 44 W/m 3,0 km/h (1 Bft)
27.05.2015 07:00 9,8 C 9,1 C 83 % 0 lf 1024,1 hPa 0,0 l/m 0,90 h 0,00 h 219 W/m 5,0 km/h (1 Bft)
27.05.2015 08:00 10,9 C 9,8 C 75 % 0 lf 1024,4 hPa 0,0 l/m 1,00 h 0,00 h 396 W/m 9,5 km/h (2 Bft)
27.05.2015 09:00 14,1 C 12,5 C 61 % 0 lf 1024,6 hPa 0,0 l/m 1,00 h 0,00 h 600 W/m 10,4 km/h (2 Bft)
27.05.2015 10:00 15,9 C 15,0 C 56 % 0 lf 1024,4 hPa 0,0 l/m 0,53 h 0,00 h 430 W/m 10,6 km/h (2 Bft)
27.05.2015 11:00 16,1 C 15,4 C 56 % 0 lf 1024,3 hPa 0,0 l/m 0,70 h 0,00 h 581 W/m 10,8 km/h (2 Bft)
27.05.2015 12:00 17,8 C 17,4 C 52 % 0 lf 1023,8 hPa 0,0 l/m 0,80 h 0,00 h 486 W/m 11,6 km/h (2 Bft)
27.05.2015 13:00 18,6 C 19,1 C 52 % 0 lf 1023,3 hPa 0,0 l/m 0,87 h 0,00 h 690 W/m 11,6 km/h (2 Bft)
27.05.2015 14:00 18,5 C 17,4 C 52 % 0 lf 1022,8 hPa 0,0 l/m 0,57 h 0,00 h 606 W/m 14,4 km/h (3 Bft)
27.05.2015 15:00 19,3 C 17,9 C 50 % 0 lf 1021,9 hPa 0,0 l/m 0,37 h 0,00 h 422 W/m 13,1 km/h (3 Bft)
27.05.2015 16:00 19,5 C 18,7 C 49 % 0 lf 1021,5 hPa 0,0 l/m 0,73 h 0,00 h 545 W/m 13,5 km/h (3 Bft)
27.05.2015 17:00 19,6 C 17,8 C 49 % 0 lf 1020,9 hPa 0,0 l/m 0,93 h 0,00 h 455 W/m 14,2 km/h (3 Bft)
27.05.2015 18:00 18,6 C 16,2 C 51 % 0 lf 1020,1 hPa 0,0 l/m 0,40 h 0,00 h 221 W/m 14,0 km/h (3 Bft)
27.05.2015 19:00 18,0 C 15,8 C 52 % 0 lf 1019,3 hPa 0,0 l/m 0,80 h 0,00 h 177 W/m 14,7 km/h (3 Bft)
27.05.2015 20:00 17,3 C 14,7 C 54 % 0 lf 1018,8 hPa 0,0 l/m 0,13 h 0,00 h 56 W/m 14,1 km/h (3 Bft)
27.05.2015 21:00 16,0 C 13,4 C 58 % 0 lf 1018,4 hPa 0,0 l/m 0,00 h 0,00 h 10 W/m 15,4 km/h (3 Bft)
27.05.2015 22:00 14,8 C 12,7 C 61 % 0 lf 1017,9 hPa 0,0 l/m 0,00 h 0,00 h 0 W/m 17,3 km/h (3 Bft)
27.05.2015 23:00 13,9 C 12,0 C 64 % 0 lf 1017,3 hPa 0,0 l/m 0,00 h 0,00 h 0 W/m 15,7 km/h (3 Bft)
28.05.2015 00:00 13,2 C 11,7 C 68 % 0 lf 1016,9 hPa 0,0 l/m 0,00 h 0,00 h 0 W/m 11,0 km/h (2 Bft)
28.05.2015 01:00 13,0 C 11,7 C 71 % 0 lf 1016,4 hPa 0,0 l/m 0,00 h 0,00 h 0 W/m 8,5 km/h (2 Bft)
28.05.2015 02:00 12,9 C 11,7 C 73 % 0 lf 1015,9 hPa 0,0 l/m 0,00 h 0,00 h 0 W/m 8,1 km/h (2 Bft)
28.05.2015 03:00 12,8 C 11,7 C 74 % 0 lf 1015,0 hPa 0,0 l/m 0,00 h 0,00 h 0 W/m 7,8 km/h (2 Bft)
28.05.2015 04:00 13,2 C 12,0 C 74 % 0 lf 1014,4 hPa 0,0 l/m 0,00 h 0,00 h 0 W/m 14,6 km/h (3 Bft)
28.05.2015 05:00 13,7 C 12,2 C 72 % 0 lf 1014,1 hPa 0,0 l/m 0,00 h 0,00 h 7 W/m 15,5 km/h (3 Bft)
28.05.2015 06:00 14,0 C 12,3 C 71 % 0 lf 1013,9 hPa 0,0 l/m 0,00 h 0,00 h 35 W/m 18,8 km/h (3 Bft)
28.05.2015 07:00 14,3 C 12,9 C 72 % 0 lf 1013,9 hPa 0,0 l/m 0,13 h 0,00 h 106 W/m 19,4 km/h (3 Bft)
28.05.2015 08:00 15,1 C 13,8 C 70 % 0 lf 1013,8 hPa 0,0 l/m 0,53 h 0,00 h 252 W/m 24,0 km/h (4 Bft)
28.05.2015 09:00 16,5 C 15,0 C 66 % 0 lf 1013,6 hPa 0,0 l/m 0,67 h 0,00 h 405 W/m 26,1 km/h (4 Bft)
28.05.2015 10:00 16,8 C 16,2 C 68 % 0 lf 1013,4 hPa 0,0 l/m 0,67 h 0,00 h 402 W/m 28,3 km/h (4 Bft)
28.05.2015 11:00 17,3 C 16,7 C 63 % 0 lf 1013,2 hPa 0,0 l/m 0,33 h 0,00 h 325 W/m 27,8 km/h (4 Bft)
28.05.2015 12:00 18,7 C 18,9 C 58 % 0 lf 1013,1 hPa 0,0 l/m 0,97 h 0,00 h 602 W/m 31,0 km/h (5 Bft)
28.05.2015 13:00 19,4 C 19,5 C 56 % 0 lf 1013,1 hPa 0,0 l/m 0,60 h 0,00 h 568 W/m 34,7 km/h (5 Bft)
28.05.2015 14:00 18,0 C 17,2 C 64 % 0 lf 1013,2 hPa 0,0 l/m 0,10 h 0,13 h 273 W/m 26,8 km/h (4 Bft)
28.05.2015 15:00 18,5 C 18,0 C 67 % 0 lf 1012,7 hPa 0,0 l/m 0,63 h 0,03 h 605 W/m 27,1 km/h (4 Bft)
28.05.2015 16:00 17,9 C 15,7 C 66 % 4 lf 1012,8 hPa 0,0 l/m 0,00 h 0,27 h 88 W/m 23,6 km/h (4 Bft)
28.05.2015 17:00 14,7 C 13,0 C 82 % 13 lf 1013,2 hPa 0,2 l/m 0,00 h 0,60 h 114 W/m 19,0 km/h (3 Bft)
28.05.2015 18:00 13,9 C 12,8 C 88 % 15 lf 1013,2 hPa 0,2 l/m 0,00 h 0,43 h 78 W/m 13,4 km/h (3 Bft)
28.05.2015 19:00 13,7 C 12,5 C 90 % 15 lf 1013,3 hPa 0,2 l/m 0,00 h 0,30 h 37 W/m 7,2 km/h (2 Bft)
28.05.2015 20:00 13,5 C 12,2 C 91 % 15 lf 1013,4 hPa 0,0 l/m 0,00 h 0,10 h 32 W/m 7,3 km/h (2 Bft)
28.05.2015 21:00 13,1 C 12,2 C 91 % 15 lf 1013,6 hPa 0,0 l/m 0,00 h 0,00 h 12 W/m 5,0 km/h (1 Bft)
28.05.2015 22:00 12,7 C 11,7 C 92 % 15 lf 1014,0 hPa 0,0 l/m 0,00 h 0,20 h 0 W/m 2,4 km/h (1 Bft)
28.05.2015 23:00 12,3 C 11,3 C 92 % 15 lf 1013,8 hPa 0,2 l/m 0,00 h 0,00 h 0 W/m 1,8 km/h (1 Bft)
29.05.2015 00:00 11,8 C 11,1 C 92 % 11 lf 1013,7 hPa 0,0 l/m 0,00 h 0,00 h 0 W/m 5,2 km/h (1 Bft)
29.05.2015 01:00 11,4 C 10,7 C 93 % 1 lf 1013,6 hPa 0,0 l/m 0,00 h 0,00 h 0 W/m 4,0 km/h (1 Bft)
29.05.2015 02:00 11,1 C 10,5 C 93 % 1 lf 1013,4 hPa 0,0 l/m 0,00 h 0,00 h 0 W/m 1,9 km/h (1 Bft)
29.05.2015 03:00 10,6 C 10,0 C 93 % 2 lf 1012,8 hPa 0,0 l/m 0,00 h 0,00 h 0 W/m 3,6 km/h (1 Bft)
29.05.2015 04:00 10,3 C 9,8 C 93 % 1 lf 1012,2 hPa 0,0 l/m 0,00 h 0,00 h 0 W/m 8,7 km/h (2 Bft)
29.05.2015 05:00 9,9 C 9,4 C 90 % 0 lf 1011,9 hPa 0,0 l/m 0,00 h 0,00 h 8 W/m 11,5 km/h (2 Bft)
29.05.2015 06:00 9,7 C 9,4 C 89 % 0 lf 1011,8 hPa 0,0 l/m 0,03 h 0,00 h 50 W/m 11,6 km/h (2 Bft)
29.05.2015 07:00 10,1 C 10,0 C 88 % 0 lf 1011,5 hPa 0,0 l/m 0,97 h 0,00 h 155 W/m 10,1 km/h (2 Bft)
29.05.2015 08:00 11,4 C 11,0 C 84 % 0 lf 1011,3 hPa 0,0 l/m 1,00 h 0,00 h 281 W/m 12,8 km/h (3 Bft)
29.05.2015 09:00 12,9 C 12,1 C 78 % 0 lf 1011,2 hPa 0,0 l/m 0,97 h 0,00 h 330 W/m 16,3 km/h (3 Bft)
29.05.2015 10:00 14,1 C 13,4 C 70 % 0 lf 1010,9 hPa 0,0 l/m 1,00 h 0,00 h 429 W/m 21,3 km/h (4 Bft)
29.05.2015 11:00 15,0 C 14,4 C 65 % 0 lf 1010,3 hPa 0,0 l/m 1,00 h 0,00 h 461 W/m 23,8 km/h (4 Bft)
29.05.2015 12:00 15,5 C 15,1 C 64 % 0 lf 1009,7 hPa 0,0 l/m 0,67 h 0,00 h 439 W/m 28,0 km/h (4 Bft)
29.05.2015 13:00 16,0 C 15,9 C 62 % 0 lf 1009,2 hPa 0,0 l/m 0,90 h 0,00 h 550 W/m 29,3 km/h (5 Bft)
29.05.2015 14:00 17,0 C 16,8 C 60 % 0 lf 1008,5 hPa 0,0 l/m 0,70 h 0,00 h 578 W/m 32,0 km/h (5 Bft)
29.05.2015 15:00 17,5 C 17,0 C 59 % 0 lf 1007,9 hPa 0,0 l/m 0,57 h 0,00 h 437 W/m 30,5 km/h (5 Bft)
29.05.2015 16:00 17,9 C 17,0 C 54 % 0 lf 1007,4 hPa 0,0 l/m 0,70 h 0,00 h 472 W/m 32,6 km/h (5 Bft)
29.05.2015 17:00 17,2 C 16,0 C 53 % 0 lf 1007,1 hPa 0,0 l/m 0,13 h 0,00 h 229 W/m 30,6 km/h (5 Bft)
29.05.2015 18:00 16,4 C 15,1 C 58 % 0 lf 1007,0 hPa 0,0 l/m 0,03 h 0,00 h 141 W/m 30,8 km/h (5 Bft)
29.05.2015 19:00 15,4 C 13,7 C 62 % 0 lf 1007,1 hPa 0,0 l/m 0,00 h 0,17 h 23 W/m 29,8 km/h (5 Bft)
29.05.2015 20:00 14,7 C 12,9 C 68 % 1 lf 1007,1 hPa 0,0 l/m 0,00 h 0,40 h 16 W/m 31,9 km/h (5 Bft)
29.05.2015 21:00 13,4 C 11,4 C 75 % 7 lf 1007,6 hPa 0,0 l/m 0,00 h 0,57 h 6 W/m 25,5 km/h (4 Bft)
29.05.2015 22:00 10,4 C 9,4 C 85 % 15 lf 1008,3 hPa 0,6 l/m 0,00 h 1,00 h 0 W/m 19,5 km/h (3 Bft)
29.05.2015 23:00 9,3 C 9,1 C 91 % 15 lf 1008,3 hPa 1,2 l/m 0,00 h 0,87 h 0 W/m 17,9 km/h (3 Bft)
30.05.2015 00:00 9,1 C 8,9 C 93 % 15 lf 1008,2 hPa 0,0 l/m 0,00 h 0,25 h 0 W/m 19,0 km/h (3 Bft)
30.05.2015 01:00 9,2 C 8,9 C 94 % 15 lf 1008,5 hPa 0,0 l/m 0,00 h 0,00 h 0 W/m 18,0 km/h (3 Bft)
30.05.2015 02:00 9,3 C 8,9 C 95 % 15 lf 1008,8 hPa 0,0 l/m 0,00 h 0,00 h 0 W/m 16,0 km/h (3 Bft)
30.05.2015 03:00 9,1 C 8,9 C 95 % 15 lf 1009,1 hPa 0,0 l/m 0,00 h 0,00 h 0 W/m 14,6 km/h (3 Bft)
30.05.2015 04:00 9,0 C 8,9 C 96 % 15 lf 1009,5 hPa 0,0 l/m 0,00 h 0,00 h 0 W/m 14,0 km/h (3 Bft)
30.05.2015 05:00 8,8 C 8,9 C 95 % 15 lf 1010,1 hPa 0,0 l/m 0,00 h 0,00 h 8 W/m 12,6 km/h (3 Bft)
30.05.2015 06:00 8,9 C 8,8 C 95 % 14 lf 1010,8 hPa 0,0 l/m 0,33 h 0,00 h 65 W/m 12,9 km/h (3 Bft)
30.05.2015 07:00 9,2 C 9,0 C 95 % 2 lf 1011,2 hPa 0,0 l/m 0,23 h 0,03 h 117 W/m 17,0 km/h (3 Bft)
30.05.2015 08:00 9,8 C 9,1 C 95 % 0 lf 1011,8 hPa 0,0 l/m 0,97 h 0,00 h 398 W/m 18,6 km/h (3 Bft)
30.05.2015 09:00 12,3 C 10,4 C 83 % 0 lf 1012,3 hPa 0,0 l/m 0,87 h 0,00 h 502 W/m 22,9 km/h (4 Bft)
30.05.2015 10:00 13,7 C 12,6 C 69 % 2 lf 1012,6 hPa 0,0 l/m 0,50 h 0,10 h 467 W/m 25,8 km/h (4 Bft)
30.05.2015 11:00 13,8 C 12,0 C 71 % 9 lf 1012,7 hPa 0,4 l/m 0,37 h 0,27 h 355 W/m 21,4 km/h (4 Bft)
30.05.2015 12:00 14,4 C 12,3 C 67 % 0 lf 1013,2 hPa 0,0 l/m 0,33 h 0,00 h 490 W/m 29,2 km/h (5 Bft)
30.05.2015 13:00 10,6 C 9,3 C 81 % 15 lf 1014,9 hPa 2,0 l/m 0,00 h 0,90 h 93 W/m 19,6 km/h (3 Bft)
30.05.2015 14:00 9,4 C 9,8 C 90 % 15 lf 1014,9 hPa 0,6 l/m 0,30 h 0,57 h 326 W/m 20,5 km/h (4 Bft)
30.05.2015 15:00 12,7 C 11,5 C 80 % 7 lf 1015,3 hPa 0,2 l/m 0,20 h 0,17 h 261 W/m 21,2 km/h (4 Bft)
30.05.2015 16:00 11,4 C 10,8 C 83 % 14 lf 1015,6 hPa 0,2 l/m 0,33 h 0,17 h 346 W/m 11,3 km/h (2 Bft)
30.05.2015 17:00 13,4 C 11,7 C 78 % 5 lf 1015,7 hPa 0,0 l/m 0,40 h 0,00 h 332 W/m 13,8 km/h (3 Bft)
30.05.2015 18:00 13,5 C 11,7 C 74 % 0 lf 1015,8 hPa 0,0 l/m 0,47 h 0,03 h 253 W/m 16,1 km/h (3 Bft)
30.05.2015 19:00 13,7 C 11,2 C 72 % 0 lf 1015,9 hPa 0,0 l/m 1,00 h 0,00 h 223 W/m 15,1 km/h (3 Bft)
30.05.2015 20:00 13,3 C 10,8 C 72 % 0 lf 1016,0 hPa 0,0 l/m 0,30 h 0,00 h 57 W/m 7,5 km/h (2 Bft)
30.05.2015 21:00 12,4 C 9,9 C 75 % 0 lf 1016,0 hPa 0,0 l/m 0,10 h 0,00 h 14 W/m 5,6 km/h (1 Bft)
30.05.2015 22:00 11,0 C 9,1 C 81 % 0 lf 1016,2 hPa 0,0 l/m 0,00 h 0,00 h 0 W/m 6,6 km/h (2 Bft)
30.05.2015 23:00 10,1 C 9,1 C 86 % 0 lf 1016,1 hPa 0,0 l/m 0,00 h 0,00 h 0 W/m 9,0 km/h (2 Bft)
31.05.2015 00:00 9,5 C 8,7 C 87 % 0 lf 1015,8 hPa 0,0 l/m 0,00 h 0,00 h 0 W/m 8,3 km/h (2 Bft)
31.05.2015 01:00 9,0 C 8,3 C 88 % 0 lf 1015,5 hPa 0,0 l/m 0,00 h 0,00 h 0 W/m 7,2 km/h (2 Bft)
31.05.2015 02:00 8,6 C 8,0 C 89 % 0 lf 1014,9 hPa 0,0 l/m 0,00 h 0,00 h 0 W/m 10,0 km/h (2 Bft)
31.05.2015 03:00 8,3 C 7,8 C 90 % 0 lf 1014,4 hPa 0,0 l/m 0,00 h 0,00 h 0 W/m 7,6 km/h (2 Bft)
31.05.2015 04:00 8,1 C 7,8 C 91 % 0 lf 1013,9 hPa 0,0 l/m 0,00 h 0,00 h 0 W/m 7,8 km/h (2 Bft)
31.05.2015 05:00 7,9 C 7,8 C 91 % 0 lf 1013,3 hPa 0,0 l/m 0,00 h 0,00 h 11 W/m 10,7 km/h (2 Bft)
31.05.2015 06:00 8,2 C 7,9 C 91 % 0 lf 1012,9 hPa 0,0 l/m 0,07 h 0,00 h 51 W/m 12,1 km/h (2 Bft)
31.05.2015 07:00 9,2 C 9,0 C 90 % 0 lf 1012,7 hPa 0,0 l/m 1,00 h 0,00 h 177 W/m 14,0 km/h (3 Bft)
31.05.2015 08:00 11,8 C 10,8 C 84 % 0 lf 1012,3 hPa 0,0 l/m 0,23 h 0,00 h 172 W/m 14,6 km/h (3 Bft)
31.05.2015 09:00 14,0 C 12,4 C 77 % 0 lf 1011,9 hPa 0,0 l/m 0,13 h 0,00 h 229 W/m 16,8 km/h (3 Bft)
31.05.2015 10:00 16,5 C 14,4 C 69 % 0 lf 1011,4 hPa 0,0 l/m 0,67 h 0,00 h 379 W/m 23,7 km/h (4 Bft)
31.05.2015 11:00 18,4 C 15,7 C 63 % 0 lf 1010,7 hPa 0,0 l/m 0,27 h 0,00 h 336 W/m 30,1 km/h (5 Bft)
31.05.2015 12:00 19,6 C 17,3 C 63 % 0 lf 1010,2 hPa 0,0 l/m 0,43 h 0,07 h 432 W/m 28,9 km/h (5 Bft)
31.05.2015 13:00 19,7 C 16,8 C 65 % 1 lf 1010,1 hPa 0,0 l/m 0,10 h 0,50 h 341 W/m 30,4 km/h (5 Bft)
31.05.2015 14:00 18,7 C 15,1 C 69 % 2 lf 1010,0 hPa 0,0 l/m 0,00 h 0,70 h 148 W/m 27,6 km/h (4 Bft)
31.05.2015 15:00 17,7 C 14,5 C 74 % 1 lf 1010,1 hPa 0,0 l/m 0,00 h 0,33 h 131 W/m 31,3 km/h (5 Bft)
31.05.2015 16:00 17,4 C 14,7 C 77 % 1 lf 1009,8 hPa 0,0 l/m 0,00 h 0,30 h 155 W/m 30,2 km/h (5 Bft)
31.05.2015 17:00 17,3 C 14,6 C 81 % 7 lf 1009,7 hPa 0,0 l/m 0,00 h 0,47 h 118 W/m 26,1 km/h (4 Bft)
31.05.2015 18:00 16,6 C 14,7 C 87 % 2 lf 1009,1 hPa 0,0 l/m 0,07 h 0,43 h 141 W/m 22,6 km/h (4 Bft)
31.05.2015 19:00 17,4 C 15,1 C 81 % 0 lf 1008,7 hPa 0,0 l/m 0,10 h 0,00 h 73 W/m 32,0 km/h (5 Bft)
31.05.2015 20:00 17,0 C 13,9 C 83 % 10 lf 1008,6 hPa 0,2 l/m 0,00 h 0,70 h 26 W/m 27,0 km/h (4 Bft)
31.05.2015 21:00 15,8 C 13,3 C 90 % 9 lf 1008,5 hPa 0,0 l/m 0,00 h 0,30 h 8 W/m 22,3 km/h (4 Bft)
31.05.2015 22:00 15,8 C 13,5 C 90 % 1 lf 1008,7 hPa 0,0 l/m 0,00 h 0,13 h 0 W/m 27,8 km/h (4 Bft)
31.05.2015 23:00 15,6 C 13,3 C 92 % 15 lf 1009,0 hPa 1,2 l/m 0,00 h 1,00 h 0 W/m 27,2 km/h (4 Bft)
Min-Datum _ 31.05.15 31.05.15 27.05.15 25.05.15 29.05.15 - - - - 25.05.15
_ Min-Zeit 05:10 02:24 16:24 00:00 17:18 - - - - 00:05
Minimum _ 7,9 C 7,8 C 47 % 0 lf 1006,9 hPa - - - - 0,0 km/h (0 Bft)
Max-Datum _ 31.05.15 27.05.15 30.05.15 25.05.15 27.05.15 30.05.15 25.05.15 25.05.15 27.05.15 31.05.15
_ Max-Zeit 12:38 13:34 02:52 04:16 09:28 13:08 12:10 03:30 13:34 20:02
Maximum _ 20,3 C 21,1 C 96 % 15 lf 1024,7 hPa 2,0 l/m 0,03 h 0,03 h 1252 W/m 54,4 km/h
W-SW (7 Bft)
Durchschnitt _ 13,4 C 12,3 C 75 % 3 lf 1015,1 hPa #9,2 l/m #39:58 h #15:34 h 240 W/m 15,7 km/h (3 Bft)
© 2015 W. Hausmann